createdAt,value
2018-09-21T00:01:22.530Z,51.55
2018-09-21T00:06:25.839Z,51.98
2018-09-21T00:11:29.221Z,51.56
2018-09-21T00:16:32.576Z,51.75
2018-09-21T00:21:35.880Z,51.84
2018-09-21T00:26:39.216Z,51.92
2018-09-21T00:31:42.500Z,52.39
2018-09-21T00:36:46.016Z,52.17
2018-09-21T00:41:49.405Z,52.73
2018-09-21T00:46:52.772Z,52.56
2018-09-21T00:51:56.064Z,52.71
2018-09-21T00:56:59.395Z,52.89
2018-09-21T01:02:02.725Z,52.61
2018-09-21T01:07:06.039Z,53.09
2018-09-21T01:12:09.365Z,52.69
2018-09-21T01:17:12.707Z,53.04
2018-09-21T01:22:16.074Z,52.94
2018-09-21T01:27:19.350Z,52.44
2018-09-21T01:32:22.716Z,52.72
2018-09-21T01:37:26.004Z,52.96
2018-09-21T01:42:29.308Z,52.50
2018-09-21T01:47:32.742Z,53.03
2018-09-21T01:52:36.077Z,52.73
2018-09-21T01:57:39.372Z,52.52
2018-09-21T02:02:42.727Z,52.71
2018-09-21T02:07:46.058Z,52.83
2018-09-21T02:12:49.371Z,53.09
2018-09-21T02:17:52.706Z,53.01
2018-09-21T02:22:56.052Z,52.84
2018-09-21T02:27:59.327Z,52.98
2018-09-21T02:33:02.658Z,53.38
2018-09-21T02:38:06.115Z,52.83
2018-09-21T02:43:09.466Z,53.09
2018-09-21T02:48:12.821Z,53.03
2018-09-21T02:53:16.206Z,52.85
2018-09-21T02:58:19.524Z,52.75
2018-09-21T03:03:22.855Z,52.91
2018-09-21T03:08:26.183Z,52.63
2018-09-21T03:13:29.581Z,53.07
2018-09-21T03:18:32.912Z,52.60
2018-09-21T03:23:36.233Z,52.60
2018-09-21T03:28:39.559Z,52.79
2018-09-21T03:33:42.871Z,52.95
2018-09-21T03:38:46.251Z,53.14
2018-09-21T03:43:49.637Z,53.41
2018-09-21T03:48:52.956Z,53.10
2018-09-21T03:53:56.419Z,53.64
2018-09-21T03:58:59.754Z,53.34
2018-09-21T04:04:03.172Z,53.25
2018-09-21T04:09:08.697Z,53.23
2018-09-21T04:14:11.983Z,53.13
2018-09-21T04:19:15.282Z,53.34
2018-09-21T04:24:18.613Z,53.16
2018-09-21T04:29:21.901Z,53.38
2018-09-21T04:34:25.224Z,53.35
2018-09-21T04:39:28.646Z,53.08
2018-09-21T04:44:31.930Z,52.87
2018-09-21T04:49:35.225Z,53.26
2018-09-21T04:54:38.548Z,52.89
2018-09-21T04:59:41.890Z,53.40
2018-09-21T05:04:45.228Z,53.13
2018-09-21T05:09:48.535Z,53.33
2018-09-21T05:14:51.926Z,53.27
2018-09-21T05:19:56.149Z,53.43
2018-09-21T05:24:59.424Z,53.04
2018-09-21T05:30:02.850Z,53.41
2018-09-21T05:35:06.714Z,53.40
2018-09-21T05:40:10.022Z,52.82
2018-09-21T05:45:13.400Z,52.72
2018-09-21T05:50:16.879Z,52.12
2018-09-21T05:55:20.225Z,52.31
2018-09-21T06:00:23.586Z,52.05
2018-09-21T06:05:26.915Z,51.30
2018-09-21T06:10:30.244Z,50.93
2018-09-21T06:15:33.606Z,51.17
2018-09-21T06:20:36.883Z,49.89
2018-09-21T06:25:40.164Z,49.56
2018-09-21T06:30:43.447Z,49.23
2018-09-21T06:35:46.759Z,49.23
2018-09-21T06:40:50.055Z,49.30
2018-09-21T06:45:53.331Z,48.34
2018-09-21T06:50:56.627Z,47.97
2018-09-21T06:55:59.932Z,47.66
2018-09-21T07:01:03.218Z,47.59
2018-09-21T07:06:06.499Z,47.65
2018-09-21T07:11:09.795Z,47.58
2018-09-21T07:16:13.086Z,47.36
2018-09-21T07:21:16.419Z,47.93
2018-09-21T07:26:19.702Z,47.75
2018-09-21T07:31:23.097Z,47.25
2018-09-21T07:36:26.646Z,47.65
2018-09-21T07:41:29.936Z,47.80
2018-09-21T07:46:33.239Z,46.87
2018-09-21T07:51:36.519Z,47.06
2018-09-21T07:56:39.846Z,46.20
2018-09-21T08:01:43.171Z,46.02
2018-09-21T08:06:46.531Z,45.37
2018-09-21T08:11:49.874Z,45.48
2018-09-21T08:16:53.191Z,44.96
2018-09-21T08:21:56.535Z,44.77
2018-09-21T08:26:59.863Z,43.68
2018-09-21T08:32:03.199Z,43.39
2018-09-21T08:37:06.895Z,43.48
2018-09-21T08:42:10.166Z,43.02
2018-09-21T08:47:13.480Z,42.33
2018-09-21T08:52:16.830Z,42.34
2018-09-21T08:57:20.368Z,43.01
2018-09-21T09:02:24.286Z,42.41
2018-09-21T09:07:27.676Z,42.34
2018-09-21T09:12:30.990Z,41.06
2018-09-21T09:17:34.297Z,39.89
2018-09-21T09:22:37.596Z,39.03
2018-09-21T09:27:40.911Z,38.95
2018-09-21T09:32:44.210Z,37.22
2018-09-21T09:37:47.533Z,36.46
2018-09-21T09:42:53.022Z,36.58
2018-09-21T09:47:56.401Z,37.20
2018-09-21T09:52:59.719Z,37.61
2018-09-21T09:58:03.024Z,37.90
2018-09-21T10:03:06.334Z,38.36
2018-09-21T10:08:10.085Z,37.84
2018-09-21T10:13:13.418Z,37.88
2018-09-21T10:18:16.763Z,37.68
2018-09-21T10:23:20.102Z,37.15
2018-09-21T10:28:23.590Z,37.55
2018-09-21T10:33:26.796Z,36.85
2018-09-21T10:38:30.115Z,36.90
2018-09-21T10:43:33.471Z,33.97
2018-09-21T10:48:36.795Z,32.44
2018-09-21T10:53:40.143Z,31.77
2018-09-21T10:58:43.554Z,31.22
2018-09-21T11:03:46.934Z,31.12
2018-09-21T11:08:51.440Z,32.53
2018-09-21T11:13:54.799Z,30.68
2018-09-21T11:18:58.371Z,28.48
2018-09-21T11:24:01.741Z,30.15
2018-09-21T11:29:05.143Z,30.30
2018-09-21T11:34:08.506Z,29.07
2018-09-21T11:39:12.400Z,29.60
2018-09-21T11:44:15.723Z,26.55
2018-09-21T11:49:19.056Z,30.50
2018-09-21T11:54:22.434Z,32.58
2018-09-21T11:59:25.768Z,33.47
2018-09-21T12:04:40.630Z,34.16
2018-09-21T12:09:44.028Z,34.29
2018-09-21T12:14:47.354Z,35.24
2018-09-21T12:19:50.748Z,36.71
2018-09-21T12:24:54.109Z,37.26
2018-09-21T12:29:57.575Z,37.54
2018-09-21T12:35:00.953Z,37.35
2018-09-21T12:40:04.542Z,37.69
2018-09-21T12:45:08.017Z,37.65
2018-09-21T12:50:11.408Z,38.40
2018-09-21T12:55:15.040Z,38.10
2018-09-21T13:00:18.451Z,38.40
2018-09-21T13:05:21.803Z,37.94
2018-09-21T13:10:25.190Z,38.15
2018-09-21T13:15:28.730Z,38.14
2018-09-21T13:20:32.869Z,37.66
2018-09-21T13:25:36.234Z,37.61
2018-09-21T13:30:39.553Z,37.48
2018-09-21T13:35:42.911Z,36.86
2018-09-21T13:40:46.340Z,36.26
2018-09-21T13:45:49.675Z,36.22
2018-09-21T13:50:53.006Z,34.72
2018-09-21T13:55:56.390Z,35.31
2018-09-21T14:00:59.715Z,36.15
2018-09-21T14:06:03.989Z,36.06
2018-09-21T14:11:07.319Z,35.19
2018-09-21T14:16:10.659Z,34.49
2018-09-21T14:21:14.306Z,31.88
2018-09-21T14:26:17.670Z,31.52
2018-09-21T14:31:20.987Z,31.87
2018-09-21T14:36:24.349Z,32.53
2018-09-21T14:41:27.707Z,32.23
2018-09-21T14:46:31.074Z,31.60
2018-09-21T14:51:35.019Z,32.02
2018-09-21T14:56:38.856Z,33.62
2018-09-21T15:01:42.254Z,36.28
2018-09-21T15:06:45.583Z,36.91
2018-09-21T15:11:49.048Z,36.85
2018-09-21T15:16:52.397Z,35.57
2018-09-21T15:21:55.747Z,34.57
2018-09-21T15:26:59.054Z,45.17
2018-09-21T15:32:02.488Z,57.01
2018-09-21T15:37:05.889Z,62.14
2018-09-21T15:42:09.246Z,62.15
2018-09-21T15:47:12.605Z,62.42
2018-09-21T15:52:16.039Z,63.49
2018-09-21T15:57:19.447Z,62.33
2018-09-21T16:02:22.791Z,63.36
2018-09-21T16:07:26.207Z,64.04
2018-09-21T16:12:29.563Z,63.22
2018-09-21T16:17:33.000Z,63.74
2018-09-21T16:22:36.347Z,64.30
2018-09-21T16:27:39.689Z,63.37
2018-09-21T16:32:43.031Z,61.98
2018-09-21T16:37:46.397Z,61.46
2018-09-21T16:42:49.747Z,61.59
2018-09-21T16:47:53.075Z,62.77
2018-09-21T16:52:56.439Z,58.78
2018-09-21T16:57:59.773Z,57.49
2018-09-21T17:03:03.171Z,56.08
2018-09-21T17:08:06.531Z,57.51
2018-09-21T17:13:09.850Z,57.73
2018-09-21T17:18:13.236Z,57.28
2018-09-21T17:23:17.057Z,57.10
2018-09-21T17:28:20.462Z,57.50
2018-09-21T17:33:24.626Z,58.92
2018-09-21T17:38:29.037Z,59.44
2018-09-21T17:43:33.292Z,60.87
2018-09-21T17:48:37.206Z,62.01
2018-09-21T17:53:41.205Z,62.97
2018-09-21T17:58:44.937Z,63.64
2018-09-21T18:03:48.795Z,64.01
2018-09-21T18:08:53.003Z,63.71
2018-09-21T18:13:56.750Z,64.24
2018-09-21T18:19:01.004Z,64.46
2018-09-21T18:24:05.278Z,65.63
2018-09-21T18:29:09.224Z,66.15
2018-09-21T18:34:12.634Z,64.97
2018-09-21T18:39:15.968Z,65.40
2018-09-21T18:44:19.316Z,65.38
2018-09-21T18:49:22.686Z,65.35
2018-09-21T18:54:26.265Z,65.08
2018-09-21T18:59:29.633Z,65.42
2018-09-21T19:04:32.923Z,65.34
2018-09-21T19:09:36.276Z,65.45
2018-09-21T19:14:39.895Z,65.77
2018-09-21T19:19:43.178Z,66.15
2018-09-21T19:24:46.596Z,65.85
2018-09-21T19:29:49.986Z,65.61
2018-09-21T19:34:53.299Z,65.13
2018-09-21T19:39:56.607Z,66.06
2018-09-21T19:44:59.975Z,66.05
2018-09-21T19:50:04.084Z,66.09
2018-09-21T19:55:07.380Z,65.73
2018-09-21T20:00:10.698Z,65.38
2018-09-21T20:05:14.036Z,65.04
2018-09-21T20:10:17.343Z,65.19
2018-09-21T20:15:20.657Z,64.93
2018-09-21T20:20:23.996Z,64.84
2018-09-21T20:25:27.362Z,64.44
2018-09-21T20:30:36.054Z,64.60
2018-09-21T20:35:39.419Z,63.78
2018-09-21T20:40:42.666Z,63.28
2018-09-21T20:45:46.019Z,63.14
2018-09-21T20:50:49.359Z,63.43
2018-09-21T20:55:52.686Z,63.29
2018-09-21T21:00:55.977Z,63.40
2018-09-21T21:05:59.363Z,63.57
2018-09-21T21:11:02.675Z,63.48
2018-09-21T21:16:05.972Z,63.24
2018-09-21T21:21:09.267Z,63.15
2018-09-21T21:26:12.578Z,62.77
2018-09-21T21:31:15.887Z,62.66
2018-09-21T21:36:19.520Z,63.08
2018-09-21T21:41:22.831Z,62.65
2018-09-21T21:46:26.163Z,61.94
2018-09-21T21:51:29.522Z,61.94
2018-09-21T21:56:32.822Z,61.45
2018-09-21T22:01:41.446Z,61.23
2018-09-21T22:06:44.758Z,60.92
2018-09-21T22:11:53.474Z,60.61
2018-09-21T22:16:56.782Z,60.34
2018-09-21T22:22:00.107Z,59.67
2018-09-21T22:27:03.440Z,58.76
2018-09-21T22:32:06.963Z,59.07
2018-09-21T22:37:10.272Z,58.46
2018-09-21T22:42:13.670Z,57.60
2018-09-21T22:47:17.102Z,57.61
2018-09-21T22:52:20.386Z,57.48
2018-09-21T22:57:23.743Z,57.31
2018-09-21T23:02:27.051Z,56.68
2018-09-21T23:07:30.358Z,55.98
2018-09-21T23:12:33.704Z,55.71
2018-09-21T23:17:37.042Z,55.18
2018-09-21T23:22:40.356Z,54.63
2018-09-21T23:27:43.643Z,54.52
2018-09-21T23:32:47.031Z,53.96
2018-09-21T23:37:50.386Z,53.61
2018-09-21T23:42:53.670Z,53.24
2018-09-21T23:47:56.975Z,52.80
2018-09-21T23:53:00.320Z,53.08
2018-09-21T23:58:03.666Z,52.97
